createdAt,value
2018-09-16T00:01:58.536Z,52.70
2018-09-16T00:04:27.423Z,52.30
2018-09-16T00:06:56.273Z,51.60
2018-09-16T00:09:25.164Z,51.00
2018-09-16T00:11:53.979Z,50.50
2018-09-16T00:14:22.801Z,50.50
2018-09-16T00:16:51.712Z,50.50
2018-09-16T00:19:20.582Z,50.50
2018-09-16T00:21:49.440Z,50.60
2018-09-16T00:24:18.302Z,50.50
2018-09-16T00:26:47.240Z,51.20
2018-09-16T00:29:16.130Z,51.40
2018-09-16T00:31:44.997Z,51.30
2018-09-16T00:34:13.871Z,51.00
2018-09-16T00:36:42.731Z,50.90
2018-09-16T00:39:11.626Z,51.10
2018-09-16T00:41:40.455Z,52.10
2018-09-16T00:44:09.344Z,53.00
2018-09-16T00:46:38.182Z,52.90
2018-09-16T00:49:07.036Z,52.80
2018-09-16T00:51:35.930Z,53.30
2018-09-16T00:54:04.795Z,53.30
2018-09-16T00:56:33.614Z,55.20
2018-09-16T00:59:02.506Z,55.00
2018-09-16T01:01:31.342Z,54.90
2018-09-16T01:04:00.232Z,55.40
2018-09-16T01:06:34.297Z,55.20
2018-09-16T01:09:03.669Z,54.90
2018-09-16T01:11:32.519Z,54.90
2018-09-16T01:14:01.373Z,54.70
2018-09-16T01:16:30.305Z,54.80
2018-09-16T01:18:59.505Z,54.80
2018-09-16T01:21:28.352Z,54.70
2018-09-16T01:23:57.244Z,54.70
2018-09-16T01:26:26.123Z,54.60
2018-09-16T01:28:54.971Z,54.70
2018-09-16T01:31:23.905Z,54.70
2018-09-16T01:33:52.750Z,53.70
2018-09-16T01:36:21.820Z,53.60
2018-09-16T01:38:52.739Z,53.30
2018-09-16T01:41:22.005Z,54.10
2018-09-16T01:43:51.410Z,53.40
2018-09-16T01:46:20.448Z,52.80
2018-09-16T01:48:49.300Z,52.50
2018-09-16T01:51:18.149Z,52.30
2018-09-16T01:53:47.068Z,52.70
2018-09-16T01:56:15.931Z,52.90
2018-09-16T01:58:44.788Z,54.40
2018-09-16T02:01:13.834Z,52.90
2018-09-16T02:03:42.692Z,52.20
2018-09-16T02:06:11.594Z,51.90
2018-09-16T02:08:40.451Z,51.70
2018-09-16T02:11:09.320Z,51.80
2018-09-16T02:13:38.168Z,51.90
2018-09-16T02:16:07.111Z,51.90
2018-09-16T02:18:36.009Z,51.90
2018-09-16T02:21:04.876Z,51.60
2018-09-16T02:23:33.805Z,51.40
2018-09-16T02:26:02.743Z,51.30
2018-09-16T02:28:31.649Z,51.30
2018-09-16T02:31:00.505Z,51.30
2018-09-16T02:33:29.783Z,50.70
2018-09-16T02:35:58.685Z,49.50
2018-09-16T02:38:27.545Z,50.50
2018-09-16T02:40:56.416Z,50.10
2018-09-16T02:43:25.350Z,50.40
2018-09-16T02:45:54.111Z,51.00
2018-09-16T02:48:22.976Z,50.40
2018-09-16T02:50:51.807Z,50.60
2018-09-16T02:53:20.736Z,51.30
2018-09-16T02:55:49.586Z,52.10
2018-09-16T02:58:18.428Z,52.60
2018-09-16T03:00:47.395Z,52.90
2018-09-16T03:03:16.204Z,51.70
2018-09-16T03:05:50.066Z,51.60
2018-09-16T03:08:20.010Z,51.80
2018-09-16T03:10:48.864Z,51.60
2018-09-16T03:13:17.969Z,52.00
2018-09-16T03:15:47.516Z,51.50
2018-09-16T03:18:16.522Z,51.90
2018-09-16T03:20:45.412Z,51.60
2018-09-16T03:23:14.275Z,52.20
2018-09-16T03:25:43.144Z,52.10
2018-09-16T03:28:12.052Z,52.00
2018-09-16T03:30:40.908Z,53.10
2018-09-16T03:33:09.849Z,53.10
2018-09-16T03:35:38.708Z,52.80
2018-09-16T03:38:07.592Z,53.30
2018-09-16T03:40:36.485Z,53.30
2018-09-16T03:45:35.023Z,52.90
2018-09-16T03:48:03.900Z,54.10
2018-09-16T03:50:32.776Z,54.10
2018-09-16T03:53:01.677Z,54.10
2018-09-16T03:55:30.540Z,54.10
2018-09-16T03:57:59.424Z,54.10
2018-09-16T04:00:28.266Z,55.00
2018-09-16T04:02:57.271Z,54.90
2018-09-16T04:05:26.111Z,54.90
2018-09-16T04:07:54.920Z,54.00
2018-09-16T04:10:23.747Z,54.10
2018-09-16T04:12:52.579Z,54.00
2018-09-16T04:15:21.507Z,54.10
2018-09-16T04:20:19.960Z,52.90
2018-09-16T04:22:48.833Z,54.10
2018-09-16T04:25:17.757Z,54.00
2018-09-16T04:27:46.640Z,54.10
2018-09-16T04:30:15.463Z,53.20
2018-09-16T04:32:44.361Z,54.10
2018-09-16T04:35:13.277Z,53.00
2018-09-16T04:37:42.094Z,52.10
2018-09-16T04:40:10.972Z,51.90
2018-09-16T04:42:39.889Z,51.80
2018-09-16T04:45:08.768Z,51.80
2018-09-16T04:47:37.641Z,52.00
2018-09-16T04:50:06.717Z,52.50
2018-09-16T04:52:35.651Z,52.00
2018-09-16T04:55:04.474Z,51.70
2018-09-16T04:57:33.327Z,51.60
2018-09-16T05:00:02.218Z,51.60
2018-09-16T05:02:31.105Z,51.00
2018-09-16T05:04:59.963Z,50.70
2018-09-16T05:07:28.827Z,51.90
2018-09-16T05:09:57.675Z,52.70
2018-09-16T05:12:26.548Z,53.30
2018-09-16T05:14:56.304Z,52.20
2018-09-16T05:17:25.122Z,50.50
2018-09-16T05:19:53.981Z,50.90
2018-09-16T05:22:22.856Z,50.90
2018-09-16T05:24:51.766Z,50.30
2018-09-16T05:27:20.611Z,49.90
2018-09-16T05:29:49.425Z,50.40
2018-09-16T05:32:18.323Z,50.00
2018-09-16T05:34:47.209Z,49.20
2018-09-16T05:37:16.102Z,48.20
2018-09-16T05:39:44.976Z,48.30
2018-09-16T05:42:13.861Z,48.50
2018-09-16T05:44:42.691Z,48.50
2018-09-16T05:47:11.547Z,48.20
2018-09-16T05:49:40.424Z,47.10
2018-09-16T05:52:09.276Z,47.10
2018-09-16T05:54:38.176Z,46.30
2018-09-16T05:57:07.117Z,46.90
2018-09-16T05:59:36.019Z,48.10
2018-09-16T06:02:04.871Z,46.80
2018-09-16T06:04:33.715Z,45.90
2018-09-16T06:07:02.564Z,46.20
2018-09-16T06:09:31.404Z,45.00
2018-09-16T06:12:00.275Z,45.10
2018-09-16T06:14:29.144Z,44.90
2018-09-16T06:16:58.049Z,43.00
2018-09-16T06:19:52.009Z,43.70
2018-09-16T06:22:20.902Z,42.50
2018-09-16T06:24:49.777Z,42.40
2018-09-16T06:27:18.656Z,42.10
2018-09-16T06:29:47.661Z,41.60
2018-09-16T06:32:16.535Z,40.70
2018-09-16T06:34:45.433Z,39.40
2018-09-16T06:37:14.300Z,38.00
2018-09-16T06:39:43.153Z,37.40
2018-09-16T06:45:09.838Z,35.80
2018-09-16T06:47:38.708Z,36.70
2018-09-16T06:50:07.577Z,35.50
2018-09-16T06:52:36.439Z,34.10
2018-09-16T06:55:05.418Z,33.40
2018-09-16T06:57:34.360Z,33.30
2018-09-16T07:00:03.647Z,32.20
2018-09-16T07:02:32.503Z,32.20
2018-09-16T07:05:01.372Z,32.30
2018-09-16T07:07:30.259Z,32.30
2018-09-16T07:09:59.102Z,32.30
2018-09-16T07:12:27.949Z,32.20
2018-09-16T07:14:56.845Z,32.20
2018-09-16T07:17:25.722Z,32.30
2018-09-16T07:19:54.615Z,32.10
2018-09-16T07:22:23.529Z,32.00
2018-09-16T07:24:52.640Z,31.60
2018-09-16T07:27:21.552Z,31.10
2018-09-16T07:29:50.374Z,30.50
2018-09-16T07:32:19.292Z,30.10
2018-09-16T07:34:48.110Z,30.10
2018-09-16T07:37:16.974Z,30.20
2018-09-16T07:39:45.864Z,29.40
2018-09-16T07:42:14.731Z,29.50
2018-09-16T07:44:43.574Z,29.00
2018-09-16T07:47:12.429Z,28.10
2018-09-16T07:49:41.307Z,26.90
2018-09-16T07:52:10.223Z,26.80
2018-09-16T07:54:39.288Z,24.60
2018-09-16T07:57:08.184Z,24.20
2018-09-16T07:59:37.109Z,22.50
2018-09-16T08:02:06.067Z,22.70
2018-09-16T08:04:34.924Z,22.70
2018-09-16T08:07:03.797Z,21.10
2018-09-16T08:09:32.670Z,22.50
2018-09-16T08:12:01.538Z,19.90
2018-09-16T08:14:30.451Z,19.70
2018-09-16T08:16:59.320Z,19.30
2018-09-16T08:19:28.231Z,18.30
2018-09-16T08:21:57.142Z,18.00
2018-09-16T08:24:26.161Z,18.20
2018-09-16T08:26:55.114Z,17.50
2018-09-16T08:29:24.497Z,16.70
2018-09-16T08:31:53.879Z,16.80
2018-09-16T08:34:22.761Z,17.30
2018-09-16T08:36:51.636Z,16.20
2018-09-16T08:39:20.483Z,14.90
2018-09-16T08:41:49.396Z,15.30
2018-09-16T08:44:18.263Z,15.20
2018-09-16T08:46:47.084Z,14.40
2018-09-16T08:49:16.005Z,14.00
2018-09-16T08:51:44.848Z,14.10
2018-09-16T08:54:13.688Z,14.10
2018-09-16T08:56:42.522Z,14.10
2018-09-16T08:59:11.437Z,13.40
2018-09-16T09:01:40.291Z,13.40
2018-09-16T09:04:09.129Z,13.70
2018-09-16T09:06:38.004Z,13.40
2018-09-16T09:09:09.987Z,11.90
2018-09-16T09:11:39.091Z,11.60
2018-09-16T09:14:07.984Z,11.00
2018-09-16T09:16:36.897Z,10.60
2018-09-16T09:19:05.764Z,10.00
2018-09-16T09:21:34.660Z,9.60
2018-09-16T09:24:03.568Z,9.00
2018-09-16T09:26:32.414Z,8.70
2018-09-16T09:29:01.319Z,8.80
2018-09-16T09:31:30.183Z,8.60
2018-09-16T09:33:59.040Z,8.50
2018-09-16T09:36:27.913Z,8.70
2018-09-16T09:38:56.763Z,8.80
2018-09-16T09:41:25.634Z,8.70
2018-09-16T09:43:54.463Z,8.40
2018-09-16T09:46:23.304Z,8.10
2018-09-16T09:48:52.139Z,7.00
2018-09-16T09:51:20.990Z,7.40
2018-09-16T09:53:49.856Z,6.30
2018-09-16T09:56:18.734Z,6.40
2018-09-16T09:58:47.691Z,4.90
2018-09-16T10:01:16.558Z,5.00
2018-09-16T10:03:45.429Z,4.80
2018-09-16T10:06:14.381Z,4.80
2018-09-16T10:08:43.548Z,4.40
2018-09-16T10:11:12.388Z,4.20
2018-09-16T10:13:41.290Z,5.00
2018-09-16T10:16:10.227Z,3.70
2018-09-16T10:18:39.133Z,4.10
2018-09-16T10:21:08.023Z,4.30
2018-09-16T10:23:36.867Z,4.70
2018-09-16T10:26:05.758Z,5.00
2018-09-16T10:28:34.609Z,4.60
2018-09-16T10:31:03.484Z,4.40
2018-09-16T10:33:32.323Z,3.60
2018-09-16T10:36:01.195Z,3.30
2018-09-16T10:38:30.098Z,3.40
2018-09-16T10:40:58.900Z,3.70
2018-09-16T10:43:27.980Z,2.50
2018-09-16T10:45:56.909Z,2.00
2018-09-16T10:48:25.873Z,1.80
2018-09-16T10:50:54.658Z,1.00
2018-09-16T10:53:23.569Z,1.00
2018-09-16T10:55:52.445Z,1.00
2018-09-16T10:58:21.609Z,1.00
2018-09-16T11:00:50.479Z,1.00
2018-09-16T11:03:19.356Z,1.00
2018-09-16T11:05:48.215Z,1.00
2018-09-16T11:08:17.109Z,1.00
2018-09-16T11:10:45.942Z,1.00
2018-09-16T11:13:14.781Z,1.00
2018-09-16T11:15:43.882Z,1.00
2018-09-16T11:18:12.700Z,1.00
2018-09-16T11:20:41.517Z,1.00
2018-09-16T11:23:10.351Z,1.10
2018-09-16T11:25:39.195Z,2.00
2018-09-16T11:28:08.044Z,1.10
2018-09-16T11:30:36.896Z,1.00
2018-09-16T11:33:05.755Z,1.00
2018-09-16T11:35:34.623Z,1.00
2018-09-16T11:38:03.416Z,1.00
2018-09-16T11:40:32.346Z,1.00
2018-09-16T11:43:01.219Z,1.00
2018-09-16T11:45:30.019Z,1.00
2018-09-16T11:47:58.920Z,1.00
2018-09-16T11:50:27.785Z,1.00
2018-09-16T11:52:56.604Z,1.00
2018-09-16T11:55:25.502Z,1.00
2018-09-16T11:57:54.379Z,1.00
2018-09-16T12:00:23.284Z,1.00
2018-09-16T12:02:52.117Z,1.00
2018-09-16T12:05:21.032Z,1.00
2018-09-16T12:07:49.857Z,1.00
2018-09-16T12:10:18.741Z,1.00
2018-09-16T12:12:47.558Z,1.00
2018-09-16T12:15:16.460Z,1.00
2018-09-16T12:17:45.364Z,1.00
2018-09-16T12:20:14.277Z,1.00
2018-09-16T12:22:43.135Z,1.00
2018-09-16T12:25:11.971Z,1.00
2018-09-16T12:27:40.832Z,1.00
2018-09-16T12:30:09.718Z,1.00
2018-09-16T12:32:38.633Z,1.00
2018-09-16T12:35:07.526Z,1.00
2018-09-16T12:37:36.417Z,1.00
2018-09-16T12:40:05.364Z,1.00
2018-09-16T12:42:34.261Z,1.00
2018-09-16T12:45:03.147Z,1.00
2018-09-16T12:47:32.036Z,1.00
2018-09-16T12:50:00.983Z,1.00
2018-09-16T12:52:29.861Z,1.00
2018-09-16T12:54:58.733Z,1.00
2018-09-16T12:57:27.584Z,1.00
2018-09-16T12:59:56.485Z,1.00
2018-09-16T13:02:25.342Z,1.00
2018-09-16T13:04:54.227Z,1.00
2018-09-16T13:07:23.118Z,1.00
2018-09-16T13:09:51.999Z,1.00
2018-09-16T13:12:20.946Z,1.00
2018-09-16T13:14:49.778Z,1.00
2018-09-16T13:17:18.648Z,1.00
2018-09-16T13:19:47.480Z,1.00
2018-09-16T13:22:16.319Z,1.00
2018-09-16T13:24:45.218Z,1.00
2018-09-16T13:27:14.079Z,1.00
2018-09-16T13:29:42.967Z,1.00
2018-09-16T13:32:11.820Z,1.00
2018-09-16T13:34:40.719Z,1.00
2018-09-16T13:37:09.577Z,1.00
2018-09-16T13:39:38.458Z,1.00
2018-09-16T13:42:07.389Z,1.00
2018-09-16T13:44:36.485Z,1.00
2018-09-16T13:47:05.358Z,1.00
2018-09-16T13:49:34.259Z,1.00
2018-09-16T13:52:03.140Z,1.00
2018-09-16T13:54:32.061Z,1.00
2018-09-16T13:57:00.894Z,1.00
2018-09-16T13:59:29.792Z,1.00
2018-09-16T14:01:58.881Z,1.00
2018-09-16T14:04:27.713Z,1.00
2018-09-16T14:06:56.593Z,1.00
2018-09-16T14:09:25.511Z,1.00
2018-09-16T14:11:54.348Z,1.00
2018-09-16T14:14:23.241Z,1.00
2018-09-16T14:16:52.104Z,1.00
2018-09-16T14:19:20.990Z,1.00
2018-09-16T14:21:49.888Z,1.00
2018-09-16T14:24:18.735Z,1.00
2018-09-16T14:26:47.572Z,1.00
2018-09-16T14:29:16.385Z,1.00
2018-09-16T14:31:45.303Z,1.00
2018-09-16T14:37:11.453Z,1.00
2018-09-16T14:39:40.283Z,1.00
2018-09-16T14:42:09.144Z,1.00
2018-09-16T14:44:37.996Z,1.00
2018-09-16T14:47:06.856Z,1.00
2018-09-16T14:49:35.775Z,1.00
2018-09-16T14:52:04.636Z,1.00
2018-09-16T14:54:33.471Z,1.00
2018-09-16T14:57:02.313Z,1.00
2018-09-16T14:59:31.218Z,1.00
2018-09-16T15:02:00.045Z,1.00
2018-09-16T15:04:28.950Z,1.00
2018-09-16T15:06:57.838Z,1.00
2018-09-16T15:09:26.728Z,1.00
2018-09-16T15:11:55.653Z,1.00
2018-09-16T15:14:24.541Z,1.00
2018-09-16T15:16:53.448Z,1.00
2018-09-16T15:19:22.332Z,1.00
2018-09-16T15:21:51.227Z,1.00
2018-09-16T15:24:20.126Z,1.00
2018-09-16T15:26:49.038Z,1.00
2018-09-16T15:29:17.932Z,1.00
2018-09-16T15:31:46.900Z,1.00
2018-09-16T15:34:15.875Z,1.00
2018-09-16T15:36:44.853Z,1.00
2018-09-16T15:39:13.773Z,1.00
2018-09-16T15:41:42.764Z,1.00
2018-09-16T15:44:11.772Z,1.00
2018-09-16T15:46:40.723Z,1.00
2018-09-16T15:49:09.804Z,1.00
2018-09-16T15:51:38.719Z,1.00
2018-09-16T15:54:08.183Z,1.00
2018-09-16T15:56:37.043Z,1.00
2018-09-16T15:59:06.162Z,1.00
2018-09-16T16:01:35.081Z,1.00
2018-09-16T16:04:03.941Z,1.00
2018-09-16T16:06:32.758Z,1.00
2018-09-16T16:09:01.656Z,1.00
2018-09-16T16:11:30.488Z,1.00
2018-09-16T16:13:59.393Z,1.00
2018-09-16T16:16:28.314Z,1.00
2018-09-16T16:18:57.300Z,1.00
2018-09-16T16:21:26.168Z,1.00
2018-09-16T16:23:55.062Z,1.00
2018-09-16T16:26:23.895Z,1.00
2018-09-16T16:28:52.788Z,1.00
2018-09-16T16:31:21.725Z,1.00
2018-09-16T16:33:50.583Z,1.00
2018-09-16T16:36:19.489Z,1.00
2018-09-16T16:38:48.308Z,1.00
2018-09-16T16:41:17.128Z,1.00
2018-09-16T16:43:46.046Z,1.00
2018-09-16T16:46:14.908Z,1.00
2018-09-16T16:48:43.725Z,1.60
2018-09-16T16:51:12.614Z,1.60
2018-09-16T16:53:41.614Z,1.70
2018-09-16T16:56:10.400Z,2.00
2018-09-16T16:58:39.320Z,1.80
2018-09-16T17:01:08.272Z,1.90
2018-09-16T17:03:37.054Z,2.10
2018-09-16T17:06:05.969Z,2.50
2018-09-16T17:08:34.966Z,2.70
2018-09-16T17:11:03.874Z,2.90
2018-09-16T17:13:32.801Z,3.30
2018-09-16T17:16:01.650Z,3.60
2018-09-16T17:18:30.557Z,3.90
2018-09-16T17:20:59.592Z,4.20
2018-09-16T17:23:28.453Z,4.70
2018-09-16T17:25:57.316Z,5.00
2018-09-16T17:28:26.203Z,5.30
2018-09-16T17:30:55.040Z,6.40
2018-09-16T17:33:23.920Z,5.50
2018-09-16T17:35:52.820Z,5.40
2018-09-16T17:38:21.753Z,5.50
2018-09-16T17:40:50.591Z,5.70
2018-09-16T17:43:19.478Z,6.10
2018-09-16T17:45:48.335Z,6.20
2018-09-16T17:48:17.244Z,6.40
2018-09-16T17:50:46.090Z,6.70
2018-09-16T17:53:14.943Z,6.80
2018-09-16T17:55:43.834Z,7.30
2018-09-16T17:58:12.723Z,7.40
2018-09-16T18:00:41.645Z,7.50
2018-09-16T18:03:10.479Z,7.80
2018-09-16T18:05:39.394Z,8.10
2018-09-16T18:08:08.273Z,8.40
2018-09-16T18:10:37.212Z,8.40
2018-09-16T18:13:06.084Z,8.80
2018-09-16T18:15:34.980Z,9.00
2018-09-16T18:18:03.845Z,9.30
2018-09-16T18:20:32.802Z,9.40
2018-09-16T18:23:01.697Z,9.70
2018-09-16T18:25:30.512Z,9.70
2018-09-16T18:27:59.384Z,10.10
2018-09-16T18:30:28.258Z,10.30
2018-09-16T18:32:57.114Z,10.40
2018-09-16T18:35:26.115Z,10.80
2018-09-16T18:37:55.035Z,11.00
2018-09-16T18:40:23.862Z,11.20
2018-09-16T18:42:52.708Z,11.30
2018-09-16T18:45:21.571Z,11.70
2018-09-16T18:47:50.440Z,12.00
2018-09-16T18:50:19.280Z,12.20
2018-09-16T18:52:48.197Z,12.40
2018-09-16T18:55:17.074Z,12.50
2018-09-16T18:57:45.911Z,12.70
2018-09-16T19:00:14.750Z,13.10
2018-09-16T19:02:43.769Z,13.30
2018-09-16T19:05:12.596Z,13.30
2018-09-16T19:07:41.435Z,13.30
2018-09-16T19:10:10.366Z,13.30
2018-09-16T19:12:39.273Z,13.20
2018-09-16T19:15:08.233Z,13.20
2018-09-16T19:17:37.289Z,13.20
2018-09-16T19:20:06.459Z,13.20
2018-09-16T19:22:35.337Z,13.10
2018-09-16T19:25:04.231Z,13.80
2018-09-16T19:27:33.174Z,13.90
2018-09-16T19:30:02.195Z,14.30
2018-09-16T19:32:31.088Z,14.60
2018-09-16T19:34:59.967Z,14.80
2018-09-16T19:37:28.837Z,14.80
2018-09-16T19:39:57.731Z,15.00
2018-09-16T19:42:26.587Z,14.40
2018-09-16T19:44:55.463Z,15.10
2018-09-16T19:47:24.301Z,15.10
2018-09-16T19:49:53.325Z,15.20
2018-09-16T19:52:22.213Z,15.40
2018-09-16T19:54:51.039Z,15.50
2018-09-16T19:57:20.113Z,15.50
2018-09-16T19:59:48.927Z,15.70
2018-09-16T20:02:17.774Z,15.80
2018-09-16T20:04:46.698Z,16.20
2018-09-16T20:07:15.553Z,16.40
2018-09-16T20:09:44.433Z,16.50
2018-09-16T20:12:13.339Z,16.40
2018-09-16T20:14:42.215Z,16.40
2018-09-16T20:17:11.130Z,16.70
2018-09-16T20:19:39.984Z,16.80
2018-09-16T20:22:09.771Z,16.90
2018-09-16T20:24:38.851Z,17.30
2018-09-16T20:27:07.921Z,17.40
2018-09-16T20:29:36.813Z,17.50
2018-09-16T20:32:05.705Z,17.60
2018-09-16T20:34:34.587Z,17.90
2018-09-16T20:37:03.514Z,17.90
2018-09-16T20:39:32.328Z,18.10
2018-09-16T20:42:01.348Z,18.20
2018-09-16T20:44:30.297Z,18.50
2018-09-16T20:46:59.164Z,18.50
2018-09-16T20:51:57.117Z,18.10
2018-09-16T20:54:25.982Z,19.10
2018-09-16T20:56:54.908Z,19.40
2018-09-16T20:59:23.789Z,19.60
2018-09-16T21:01:52.626Z,19.60
2018-09-16T21:04:21.517Z,19.90
2018-09-16T21:06:51.021Z,20.00
2018-09-16T21:09:20.199Z,20.20
2018-09-16T21:11:49.036Z,20.30
2018-09-16T21:14:17.905Z,20.60
2018-09-16T21:16:46.805Z,21.20
2018-09-16T21:19:15.656Z,21.20
2018-09-16T21:21:44.498Z,21.30
2018-09-16T21:24:13.405Z,21.20
2018-09-16T21:26:42.262Z,21.20
2018-09-16T21:29:11.160Z,21.20
2018-09-16T21:31:40.285Z,21.20
2018-09-16T21:34:09.194Z,21.20
2018-09-16T21:36:38.069Z,21.20
2018-09-16T21:39:10.436Z,21.60
2018-09-16T21:41:39.267Z,22.00
2018-09-16T21:44:08.071Z,22.00
2018-09-16T21:46:36.933Z,22.00
2018-09-16T21:49:05.763Z,22.00
2018-09-16T21:51:34.575Z,22.10
2018-09-16T21:54:03.485Z,22.30
2018-09-16T21:56:32.402Z,22.30
2018-09-16T21:59:01.249Z,22.30
2018-09-16T22:01:30.099Z,22.50
2018-09-16T22:03:58.937Z,22.40
2018-09-16T22:06:27.743Z,22.50
2018-09-16T22:08:56.788Z,22.70
2018-09-16T22:11:25.687Z,23.20
2018-09-16T22:13:54.563Z,23.20
2018-09-16T22:16:23.468Z,23.20
2018-09-16T22:18:52.324Z,23.10
2018-09-16T22:21:21.202Z,23.10
2018-09-16T22:23:50.050Z,24.40
2018-09-16T22:26:18.929Z,23.30
2018-09-16T22:28:47.776Z,23.30
2018-09-16T22:31:16.676Z,23.40
2018-09-16T22:33:45.510Z,23.30
2018-09-16T22:36:14.371Z,23.30
2018-09-16T22:38:43.294Z,23.20
2018-09-16T22:41:12.159Z,23.20
2018-09-16T22:43:41.010Z,23.20
2018-09-16T22:46:09.821Z,23.00
2018-09-16T22:48:38.698Z,23.00
2018-09-16T22:51:07.612Z,23.00
2018-09-16T22:53:36.464Z,23.00
2018-09-16T22:56:05.286Z,23.00
2018-09-16T22:58:34.184Z,23.10
2018-09-16T23:01:03.080Z,23.10
2018-09-16T23:03:32.003Z,23.20
2018-09-16T23:06:00.872Z,23.40
2018-09-16T23:08:29.720Z,23.50
2018-09-16T23:10:58.578Z,23.60
2018-09-16T23:13:27.444Z,23.70
2018-09-16T23:15:56.348Z,23.90
2018-09-16T23:18:25.228Z,23.90
2018-09-16T23:20:54.117Z,23.90
2018-09-16T23:23:23.021Z,23.70
2018-09-16T23:25:51.900Z,23.60
2018-09-16T23:28:20.743Z,24.00
2018-09-16T23:30:49.580Z,23.80
2018-09-16T23:33:18.471Z,24.10
2018-09-16T23:35:47.287Z,25.20
2018-09-16T23:38:16.208Z,25.30
2018-09-16T23:40:45.069Z,25.20
2018-09-16T23:43:13.899Z,25.40
2018-09-16T23:45:42.772Z,25.50
2018-09-16T23:48:11.623Z,25.50
2018-09-16T23:50:40.475Z,25.80
2018-09-16T23:53:09.333Z,25.90
2018-09-16T23:55:38.208Z,25.80
2018-09-16T23:58:07.101Z,25.80
